Time;durP1;ratioP1;P1;durP2;ratioP2;P2;SDS_P1;SDS_P2;PMS_P1;PMS_P2;Temp;Humidity;BMP_temperature;BMP_pressure;BME280_temperature;BME280_humidity;BME280_pressure;Samples;Min_cycle;Max_cycle;Signal;HPM_P1;HPM_P2
2022/12/05 00:00:52;;;;;;;36.30;13.03;;;;;;;1.02;100.00;95966.81;4860405;29;20025;-88
2022/12/05 00:03:18;;;;;;;48.27;13.57;;;;;;;1.03;100.00;95972.81;4851074;29;20160;-88
2022/12/05 00:05:45;;;;;;;31.03;12.73;;;;;;;1.00;100.00;95968.69;4856152;29;20060;-88
2022/12/05 00:08:11;;;;;;;34.83;12.13;;;;;;;1.02;100.00;95969.41;4844433;29;20021;-87
2022/12/05 00:10:45;;;;;;;26.53;12.60;;;;;;;1.03;100.00;95973.66;4887186;29;20044;-86
2022/12/05 00:13:11;;;;;;;29.57;12.57;;;;;;;1.04;100.00;95990.84;4876267;29;20044;-88
2022/12/05 00:15:39;;;;;;;35.60;13.07;;;;;;;1.03;100.00;96009.91;4874270;29;20088;-88
2022/12/05 00:18:05;;;;;;;33.57;12.90;;;;;;;1.02;100.00;96012.59;4868792;29;20618;-88
2022/12/05 00:20:31;;;;;;;32.73;14.23;;;;;;;1.00;100.00;96017.88;4867756;29;20111;-88
2022/12/05 00:22:57;;;;;;;37.37;14.77;;;;;;;1.00;100.00;96012.69;4876223;29;20037;-89
2022/12/05 00:25:25;;;;;;;35.37;15.43;;;;;;;0.99;100.00;96018.81;4893062;29;20051;-88
2022/12/05 00:27:50;;;;;;;34.87;15.63;;;;;;;1.01;100.00;96026.50;4877175;29;20033;-88
2022/12/05 00:30:16;;;;;;;38.47;16.47;;;;;;;0.98;100.00;96029.28;4876201;29;20162;-88
2022/12/05 00:32:42;;;;;;;33.23;15.97;;;;;;;0.95;100.00;96030.31;4874173;29;20073;-88
2022/12/05 00:35:08;;;;;;;32.63;16.80;;;;;;;1.04;100.00;96039.19;4890372;29;20492;-88
2022/12/05 00:37:33;;;;;;;34.97;17.70;;;;;;;1.01;100.00;96035.09;4856338;29;20402;-88
2022/12/05 00:39:59;;;;;;;33.17;17.30;;;;;;;0.93;100.00;96035.59;4850445;29;20074;-88
2022/12/05 00:42:25;;;;;;;33.53;16.23;;;;;;;0.90;100.00;96032.38;4837937;29;20040;-88
2022/12/05 00:44:50;;;;;;;34.30;17.27;;;;;;;0.96;100.00;96034.56;4828733;29;20568;-88
2022/12/05 00:47:16;;;;;;;34.70;16.47;;;;;;;0.94;100.00;96036.44;4843545;29;20213;-88
2022/12/05 00:49:42;;;;;;;29.17;15.87;;;;;;;0.96;100.00;96031.97;4836457;29;20048;-88
2022/12/05 00:52:07;;;;;;;29.33;14.57;;;;;;;0.92;100.00;96036.53;4842896;29;20076;-88
2022/12/05 00:54:33;;;;;;;29.03;14.27;;;;;;;0.92;100.00;96038.31;4839757;29;20033;-88
2022/12/05 00:56:59;;;;;;;28.50;15.53;;;;;;;0.90;100.00;96034.97;4837277;29;20113;-87
2022/12/05 00:59:25;;;;;;;27.80;14.73;;;;;;;0.92;100.00;96049.47;4837712;29;20032;-88
2022/12/05 01:01:51;;;;;;;27.60;14.87;;;;;;;0.89;100.00;96038.50;4821109;29;20467;-88
2022/12/05 01:04:23;;;;;;;29.03;14.93;;;;;;;0.93;100.00;96040.78;4848099;29;20100;-88
2022/12/05 01:06:52;;;;;;;29.93;15.80;;;;;;;0.87;100.00;96041.22;4824084;29;20029;-88
2022/12/05 01:09:19;;;;;;;24.90;13.93;;;;;;;0.81;100.00;96048.56;4835526;29;20040;-88
2022/12/05 01:11:45;;;;;;;25.70;14.17;;;;;;;0.86;100.00;96052.47;4835832;29;21267;-88
2022/12/05 01:14:13;;;;;;;23.97;13.10;;;;;;;0.77;100.00;96062.63;4856113;29;20041;-88
2022/12/05 01:16:41;;;;;;;27.27;13.20;;;;;;;0.83;100.00;96064.81;4824650;29;20033;-88
2022/12/05 01:19:20;;;;;;;26.67;13.57;;;;;;;0.75;100.00;96067.91;4825161;29;20128;-88
2022/12/05 01:21:46;;;;;;;27.90;14.13;;;;;;;0.89;100.00;96075.56;4817241;29;20052;-88
2022/12/05 01:24:13;;;;;;;24.73;13.67;;;;;;;0.87;100.00;96079.19;4840447;29;20044;-88
2022/12/05 01:26:40;;;;;;;26.57;14.60;;;;;;;0.84;100.00;96079.41;4836433;29;20417;-88
2022/12/05 01:29:06;;;;;;;26.57;13.90;;;;;;;0.80;100.00;96086.53;4836056;29;20083;-88
2022/12/05 01:31:34;;;;;;;26.57;15.03;;;;;;;0.78;100.00;96091.00;4854452;29;20170;-88
2022/12/05 01:34:05;;;;;;;28.10;15.40;;;;;;;0.79;100.00;96099.59;4827965;29;21608;-85
2022/12/05 01:36:34;;;;;;;29.17;15.83;;;;;;;0.68;100.00;96103.72;4835824;29;20036;-88
2022/12/05 01:39:00;;;;;;;31.30;15.37;;;;;;;0.65;100.00;96114.28;4836978;29;20032;-88
2022/12/05 01:41:30;;;;;;;30.87;15.63;;;;;;;0.59;100.00;96114.69;4887466;29;20041;-88
2022/12/05 01:44:00;;;;;;;29.87;15.57;;;;;;;0.61;100.00;96120.59;4875742;29;20135;-88
2022/12/05 01:46:28;;;;;;;30.17;15.40;;;;;;;0.53;100.00;96120.25;4873604;29;20040;-88
2022/12/05 01:49:12;;;;;;;31.90;15.60;;;;;;;0.51;100.00;96122.13;4892643;29;20038;-88
2022/12/05 01:51:39;;;;;;;;;;;;;;;0.45;100.00;96123.34;4873768;29;20086;-88
2022/12/05 01:54:05;;;;;;;32.37;16.10;;;;;;;0.41;100.00;96136.59;4873997;29;19920;-88
2022/12/05 01:56:35;;;;;;;29.13;16.17;;;;;;;0.41;100.00;96142.59;4854522;29;20120;-88
2022/12/05 01:59:04;;;;;;;34.60;17.63;;;;;;;0.40;100.00;96145.28;4868011;29;20029;-87
2022/12/05 02:01:30;;;;;;;32.20;16.47;;;;;;;0.37;100.00;96141.16;4866822;29;20047;-87
2022/12/05 02:03:57;;;;;;;29.87;16.97;;;;;;;0.40;100.00;96143.53;4866492;29;20499;-88
2022/12/05 02:06:24;;;;;;;36.13;17.27;;;;;;;0.42;100.00;96148.59;4883674;29;20408;-88
2022/12/05 02:08:52;;;;;;;36.90;18.73;;;;;;;0.43;100.00;96165.78;4865372;29;20033;-88
2022/12/05 02:11:18;;;;;;;33.57;16.83;;;;;;;0.40;100.00;96158.22;4840913;29;20030;-88
2022/12/05 02:14:11;;;;;;;28.97;15.63;;;;;;;0.44;100.00;96150.16;4825075;29;20347;-88
2022/12/05 02:16:51;;;;;;;30.90;16.52;;;;;;;0.34;100.00;96153.44;4836298;29;20041;-87
2022/12/05 02:19:36;;;;;;;30.27;16.50;;;;;;;0.38;100.00;96145.38;4842897;29;20075;-87
2022/12/05 02:22:07;;;;;;;32.30;16.97;;;;;;;0.41;100.00;96147.78;4821512;29;20029;-88
2022/12/05 02:24:39;;;;;;;32.67;16.10;;;;;;;0.43;100.00;96135.56;4858635;29;20612;-88
2022/12/05 02:27:27;;;;;;;33.83;16.63;;;;;;;0.41;100.00;96126.25;4828940;29;20066;-87
2022/12/05 02:30:23;;;;;;;28.10;15.97;;;;;;;0.37;100.00;96129.94;4835426;29;20051;-87
2022/12/05 02:32:55;;;;;;;28.13;15.23;;;;;;;0.35;100.00;96126.66;4814129;29;21377;-87
2022/12/05 02:35:40;;;;;;;29.50;15.20;;;;;;;0.43;100.00;96125.19;4821408;29;20053;-88
2022/12/05 02:38:39;;;;;;;29.73;14.63;;;;;;;0.47;100.00;96115.50;4831357;29;20109;-88
2022/12/05 02:41:32;;;;;;;26.53;15.07;;;;;;;0.46;100.00;96113.84;4846714;29;20053;-87
2022/12/05 02:44:04;;;;;;;24.63;13.97;;;;;;;0.40;100.00;96127.16;4879563;29;20499;-87
2022/12/05 02:46:45;;;;;;;28.90;14.60;;;;;;;0.39;100.00;96152.22;4853245;29;20032;-88
2022/12/05 02:49:17;;;;;;;29.70;15.73;;;;;;;0.40;100.00;96166.81;4868902;29;20113;-87
2022/12/05 02:51:53;;;;;;;26.63;15.03;;;;;;;0.43;100.00;96170.94;4849907;29;20068;-87
2022/12/05 02:54:24;;;;;;;30.00;15.60;;;;;;;0.42;100.00;96175.28;4870005;29;20518;-88
2022/12/05 02:57:00;;;;;;;27.70;15.60;;;;;;;0.42;100.00;96180.47;4867345;29;20121;-87
2022/12/05 02:59:26;;;;;;;25.93;13.60;;;;;;;0.45;100.00;96182.84;4865141;29;21177;-87
2022/12/05 03:01:52;;;;;;;23.47;13.17;;;;;;;0.44;100.00;96185.56;4867018;29;20043;-88
2022/12/05 03:04:21;;;;;;;24.23;12.97;;;;;;;0.45;100.00;96182.03;4871497;29;20109;-88
2022/12/05 03:06:57;;;;;;;25.13;14.40;;;;;;;0.46;100.00;96184.50;4871990;29;20037;-88
2022/12/05 03:09:32;;;;;;;24.07;13.53;;;;;;;0.47;100.00;96182.78;4859976;29;20469;-87
2022/12/05 03:12:07;;;;;;;26.03;13.77;;;;;;;0.44;100.00;96173.44;4813713;29;21598;-87
2022/12/05 03:14:41;;;;;;;24.40;13.47;;;;;;;0.57;100.00;96173.50;4822486;29;20494;-88
2022/12/05 03:17:12;;;;;;;29.23;15.90;;;;;;;0.51;100.00;96171.28;4818348;29;20044;-87
2022/12/05 03:20:09;;;;;;;25.20;13.77;;;;;;;0.53;100.00;96164.25;4818029;29;20132;-88
2022/12/05 03:22:52;;;;;;;23.73;12.73;;;;;;;0.58;100.00;96159.63;4832788;29;20041;-88
2022/12/05 03:25:22;;;;;;;17.10;9.88;;;;;;;0.55;100.00;96153.81;4848276;29;20044;-88
2022/12/05 03:28:13;;;;;;;22.50;11.80;;;;;;;0.57;100.00;96157.13;4854144;29;20132;-88
2022/12/05 03:30:41;;;;;;;19.43;10.97;;;;;;;0.62;100.00;96157.66;4841934;29;20065;-88
2022/12/05 03:33:34;;;;;;;19.63;10.50;;;;;;;0.57;100.00;96163.16;4840339;29;20037;-88
2022/12/05 03:36:14;;;;;;;20.73;10.40;;;;;;;0.57;100.00;96163.16;4833313;29;20489;-87
2022/12/05 03:38:49;;;;;;;20.97;11.40;;;;;;;0.58;100.00;96164.78;4847430;29;20072;-88
2022/12/05 03:41:32;;;;;;;20.17;10.97;;;;;;;0.64;100.00;96164.41;4864746;29;20040;-88
2022/12/05 03:44:03;;;;;;;19.00;9.23;;;;;;;0.67;100.00;96171.09;4857111;29;20045;-88
2022/12/05 03:46:36;;;;;;;18.03;10.00;;;;;;;0.68;100.00;96165.84;4879391;29;20036;-87
2022/12/05 03:49:11;;;;;;;20.10;9.70;;;;;;;0.75;100.00;96171.44;4870247;29;20033;-88
2022/12/05 03:51:42;;;;;;;20.33;11.00;;;;;;;0.78;100.00;96175.59;4890974;29;20047;-88
2022/12/05 03:54:49;;;;;;;17.83;9.07;;;;;;;0.85;100.00;96177.69;4875678;29;20124;-88
2022/12/05 03:57:18;;;;;;;18.27;9.50;;;;;;;0.79;100.00;96190.19;4874494;29;20037;-88
2022/12/05 03:59:48;;;;;;;16.77;9.27;;;;;;;0.81;100.00;96183.19;4860495;29;20033;-87
2022/12/05 04:02:23;;;;;;;17.80;9.80;;;;;;;0.73;100.00;96185.41;4849192;29;20124;-88
2022/12/05 04:05:00;;;;;;;16.93;9.40;;;;;;;0.75;100.00;96186.16;4855349;29;20065;-88
2022/12/05 04:07:30;;;;;;;17.03;8.93;;;;;;;0.78;100.00;96185.97;4847023;29;20044;-88
2022/12/05 04:10:01;;;;;;;21.97;11.83;;;;;;;0.81;100.00;96185.75;4846982;29;20055;-88
2022/12/05 04:12:30;;;;;;;22.73;12.90;;;;;;;0.88;100.00;96189.59;4828528;29;20049;-88
2022/12/05 04:15:04;;;;;;;20.23;11.80;;;;;;;0.81;100.00;96185.75;4827316;29;20045;-88
2022/12/05 04:17:45;;;;;;;20.33;10.20;;;;;;;0.85;100.00;96177.69;4843933;29;20041;-88
2022/12/05 04:23:02;;;;;;;18.10;10.07;;;;;;;0.82;100.00;96185.66;4808772;29;20044;-88
2022/12/05 04:25:38;;;;;;;18.20;11.07;;;;;;;0.85;100.00;96192.38;4816530;29;20049;-88
2022/12/05 04:28:09;;;;;;;20.13;11.73;;;;;;;0.88;100.00;96187.84;4809997;29;20282;-88
2022/12/05 04:30:52;;;;;;;18.40;10.87;;;;;;;0.84;100.00;96188.13;4851503;29;20159;-87
2022/12/05 04:33:36;;;;;;;17.53;9.83;;;;;;;0.88;100.00;96189.59;4833359;29;20068;-87
2022/12/05 04:36:10;;;;;;;18.03;10.53;;;;;;;0.93;100.00;96185.75;4846644;29;20036;-88
2022/12/05 04:38:59;;;;;;;19.53;9.70;;;;;;;0.92;100.00;96193.66;4845973;29;20157;-87
2022/12/05 04:41:31;;;;;;;19.37;11.47;;;;;;;0.92;100.00;96196.22;4832289;29;20033;-88
2022/12/05 04:44:01;;;;;;;17.03;10.27;;;;;;;0.92;100.00;96202.22;4833263;29;20053;-87
2022/12/05 04:46:27;;;;;;;20.57;10.80;;;;;;;0.91;100.00;96203.19;4850473;29;20045;-87
2022/12/05 04:48:59;;;;;;;19.63;10.60;;;;;;;0.93;100.00;96201.28;4869167;29;20037;-87
2022/12/05 04:51:35;;;;;;;23.57;11.20;;;;;;;0.96;100.00;96208.03;4873150;29;20040;-88
2022/12/05 04:54:09;;;;;;;21.97;11.93;;;;;;;0.96;100.00;96210.63;4875620;29;20100;-88
2022/12/05 04:56:37;;;;;;;19.45;10.93;;;;;;;1.19;100.00;96206.53;4858235;29;20069;-88
2022/12/05 04:59:04;;;;;;;38.87;21.77;;;;;;;1.14;100.00;96204.25;4861020;29;20041;-87
2022/12/05 05:01:37;;;;;;;153.17;85.50;;;;;;;1.16;100.00;96207.53;4836416;29;20064;-86
2022/12/05 05:04:14;;;;;;;111.80;69.68;;;;;;;1.43;100.00;96196.25;4841261;29;20041;-88
2022/12/05 05:06:41;;;;;;;22.37;13.90;;;;;;;1.40;100.00;96201.66;4854482;29;20088;-89
2022/12/05 05:09:11;;;;;;;19.03;10.90;;;;;;;1.29;100.00;96204.16;4851051;29;20042;-86
2022/12/05 05:11:37;;;;;;;20.23;12.27;;;;;;;1.19;100.00;96209.09;4856094;29;20143;-87
2022/12/05 05:14:03;;;;;;;23.50;13.17;;;;;;;1.13;100.00;96212.94;4833509;29;20104;-86
2022/12/05 05:16:37;;;;;;;23.93;13.37;;;;;;;1.01;100.00;96211.16;4859588;29;20033;-87
2022/12/05 05:19:05;;;;;;;21.57;11.00;;;;;;;1.09;100.00;96210.66;4863602;29;20034;-87
2022/12/05 05:21:39;;;;;;;19.87;10.63;;;;;;;1.03;100.00;96206.69;4850521;29;20021;-87
2022/12/05 05:24:08;;;;;;;17.43;9.23;;;;;;;1.02;100.00;96204.22;4869477;29;20057;-86
2022/12/05 05:26:37;;;;;;;21.47;10.43;;;;;;;1.03;100.00;96198.09;4826442;29;20080;-87
2022/12/05 05:29:02;;;;;;;21.63;11.40;;;;;;;1.11;100.00;96209.63;4857439;29;20044;-87
2022/12/05 05:31:29;;;;;;;18.97;10.70;;;;;;;1.04;100.00;96221.31;4879689;29;20041;-89
2022/12/05 05:33:55;;;;;;;22.43;11.03;;;;;;;0.99;100.00;96218.19;4876660;29;20111;-89
2022/12/05 05:36:23;;;;;;;18.33;10.67;;;;;;;1.00;100.00;96232.78;4891532;29;20041;-89
2022/12/05 05:38:55;;;;;;;19.27;9.97;;;;;;;1.03;100.00;96227.41;4879285;29;20124;-89
2022/12/05 05:41:26;;;;;;;18.90;10.57;;;;;;;1.06;100.00;96231.56;4804677;29;20152;-89
2022/12/05 05:43:53;;;;;;;15.40;9.30;;;;;;;1.11;100.00;96238.13;4800262;29;20042;-90
2022/12/05 05:46:22;;;;;;;18.90;9.97;;;;;;;1.04;100.00;96231.69;4805519;29;20021;-89
2022/12/05 05:48:48;;;;;;;18.77;9.30;;;;;;;1.07;100.00;96241.00;4792043;29;20037;-88
2022/12/05 05:51:15;;;;;;;18.43;10.30;;;;;;;1.05;100.00;96241.09;4805370;29;20041;-88
2022/12/05 05:53:41;;;;;;;19.30;10.87;;;;;;;1.04;100.00;96236.88;4795217;29;20041;-88
2022/12/05 05:56:18;;;;;;;18.17;10.47;;;;;;;1.06;100.00;96235.00;4788604;29;20072;-88
2022/12/05 05:58:44;;;;;;;22.03;10.93;;;;;;;1.07;100.00;96238.41;4794656;29;20065;-88
2022/12/05 06:01:20;;;;;;;19.77;11.27;;;;;;;1.05;100.00;96237.69;4802584;29;20055;-88
2022/12/05 06:03:46;;;;;;;18.53;11.17;;;;;;;1.09;100.00;96236.56;4767819;29;22390;-88
2022/12/05 06:06:14;;;;;;;19.30;10.83;;;;;;;1.11;100.00;96234.69;4776449;29;20041;-89
2022/12/05 06:08:43;;;;;;;19.13;10.07;;;;;;;1.14;100.00;96235.31;4786947;29;20032;-88
2022/12/05 06:11:20;;;;;;;20.17;10.73;;;;;;;1.13;100.00;96241.41;4857986;29;20108;-89
2022/12/05 06:13:46;;;;;;;22.53;11.60;;;;;;;1.14;100.00;96240.50;4877844;29;20132;-89
2022/12/05 06:16:16;;;;;;;20.77;12.53;;;;;;;1.05;100.00;96254.06;4875572;29;20726;-88
2022/12/05 06:18:42;;;;;;;22.17;12.73;;;;;;;1.03;100.00;96248.13;4878109;29;20033;-88
2022/12/05 06:21:09;;;;;;;24.00;14.27;;;;;;;1.06;100.00;96253.13;4875474;29;20040;-88
2022/12/05 06:23:48;;;;;;;20.90;12.80;;;;;;;1.11;100.00;96253.66;4876748;29;20109;-88
2022/12/05 06:26:17;;;;;;;22.93;12.47;;;;;;;1.15;100.00;96255.09;4855563;29;20032;-88
2022/12/05 06:28:43;;;;;;;21.40;12.70;;;;;;;1.12;100.00;96251.91;4854009;29;21418;-88
2022/12/05 06:31:14;;;;;;;21.73;12.67;;;;;;;1.16;100.00;96256.75;4874824;29;20061;-89
2022/12/05 06:33:40;;;;;;;17.77;9.60;;;;;;;1.17;100.00;96265.34;4856336;29;20503;-88
2022/12/05 06:36:12;;;;;;;19.03;10.23;;;;;;;1.11;100.00;96255.41;4861992;29;21663;-88
2022/12/05 06:38:39;;;;;;;18.63;10.03;;;;;;;1.12;100.00;96260.50;4834814;29;20036;-88
2022/12/05 06:41:06;;;;;;;18.17;10.33;;;;;;;1.19;100.00;96263.50;4831022;29;20077;-88
2022/12/05 06:43:33;;;;;;;22.70;11.97;;;;;;;1.19;100.00;96253.16;4841316;29;20076;-88
2022/12/05 06:46:06;;;;;;;18.83;10.80;;;;;;;1.24;100.00;96263.19;4843112;29;20103;-88
2022/12/05 06:48:35;;;;;;;;;;;;;;;1.24;100.00;96265.78;4838599;29;20037;-89
2022/12/05 06:51:01;;;;;;;21.80;11.30;;;;;;;1.16;100.00;96266.28;4829069;29;19923;-88
2022/12/05 06:53:27;;;;;;;21.00;13.13;;;;;;;1.14;100.00;96271.59;4822310;29;20412;-88
2022/12/05 06:56:03;;;;;;;20.13;11.00;;;;;;;1.17;100.00;96270.53;4812411;29;20063;-89
2022/12/05 06:58:30;;;;;;;20.30;11.80;;;;;;;1.13;100.00;96269.91;4824184;29;20040;-88
2022/12/05 07:03:42;;;;;;;21.83;12.00;;;;;;;1.12;100.00;96277.78;4837184;29;20079;-88
2022/12/05 07:06:09;;;;;;;20.53;12.13;;;;;;;1.06;100.00;96273.84;4829453;29;20047;-88
2022/12/05 07:08:38;;;;;;;19.63;11.33;;;;;;;1.09;100.00;96278.81;4865089;29;21420;-87
2022/12/05 07:11:04;;;;;;;20.20;11.30;;;;;;;1.11;100.00;96286.50;4869862;29;20024;-88
2022/12/05 07:13:30;;;;;;;21.57;11.50;;;;;;;1.17;100.00;96292.13;4873550;29;20037;-88
2022/12/05 07:15:57;;;;;;;20.60;10.50;;;;;;;1.17;100.00;96301.63;4876512;29;20029;-88
2022/12/05 07:18:23;;;;;;;24.70;12.80;;;;;;;1.21;100.00;96303.09;4871906;29;20037;-88
2022/12/05 07:21:00;;;;;;;23.20;12.57;;;;;;;1.61;100.00;96296.13;4872996;29;20039;-87
2022/12/05 07:23:26;;;;;;;24.13;12.70;;;;;;;2.26;100.00;96304.69;4856623;29;20041;-88
2022/12/05 07:26:14;;;;;;;26.20;14.13;;;;;;;2.66;100.00;96307.09;4871615;29;20480;-89
2022/12/05 07:28:50;;;;;;;21.70;11.50;;;;;;;2.03;100.00;96307.09;4873479;29;20033;-91
2022/12/05 07:31:19;;;;;;;21.20;10.83;;;;;;;1.84;100.00;96293.72;4869640;29;20033;-91
2022/12/05 07:33:54;;;;;;;18.17;10.20;;;;;;;1.77;100.00;96310.63;4875080;29;20033;-91
2022/12/05 07:36:23;;;;;;;16.90;10.07;;;;;;;1.62;100.00;96313.31;4873626;29;20535;-91
2022/12/05 07:38:56;;;;;;;20.17;11.10;;;;;;;1.61;100.00;96322.03;4851244;29;20090;-91
2022/12/05 07:41:24;;;;;;;16.38;9.30;;;;;;;1.53;100.00;96319.09;4845720;29;20071;-91
2022/12/05 07:43:58;;;;;;;20.33;10.60;;;;;;;1.78;100.00;96318.31;4841757;29;20667;-90
2022/12/05 07:46:25;;;;;;;21.10;12.10;;;;;;;2.51;100.00;96327.97;4843888;29;20037;-91
2022/12/05 07:48:54;;;;;;;23.23;11.80;;;;;;;2.63;100.00;96335.84;4816032;29;20029;-90
2022/12/05 07:51:20;;;;;;;25.27;12.97;;;;;;;3.63;100.00;96330.31;4819166;29;20037;-91
2022/12/05 07:53:47;;;;;;;23.30;12.17;;;;;;;4.35;100.00;96339.63;4779299;29;20064;-90
2022/12/05 07:56:23;;;;;;;19.53;11.30;;;;;;;3.80;100.00;96334.25;4808644;29;20029;-93
2022/12/05 07:58:50;;;;;;;21.00;12.43;;;;;;;4.12;100.00;96333.56;4896520;29;20143;-93
2022/12/05 08:01:20;;;;;;;20.57;11.83;;;;;;;4.01;100.00;96327.41;4879108;29;20073;-92
2022/12/05 08:03:53;;;;;;;17.33;10.77;;;;;;;3.80;100.00;96308.25;4888360;29;20051;-93
2022/12/05 08:06:29;;;;;;;18.67;10.10;;;;;;;3.88;100.00;96307.66;4878456;29;20435;-90
2022/12/05 08:08:56;;;;;;;19.73;11.00;;;;;;;4.84;100.00;96312.34;4885441;29;20505;-90
2022/12/05 08:11:25;;;;;;;19.80;11.40;;;;;;;5.11;100.00;96304.94;4888645;29;20036;-88
2022/12/05 08:13:53;;;;;;;23.67;10.50;;;;;;;4.94;100.00;96308.06;4880068;29;20472;-90
2022/12/05 08:16:24;;;;;;;13.93;8.60;;;;;;;4.63;100.00;96297.47;4874302;29;20484;-90
2022/12/05 08:19:02;;;;;;;15.57;8.10;;;;;;;4.91;100.00;96287.47;4875872;29;20104;-90
2022/12/05 08:21:28;;;;;;;17.27;9.83;;;;;;;5.49;100.00;96290.53;4864452;29;20040;-90
2022/12/05 08:23:54;;;;;;;15.63;9.17;;;;;;;5.07;100.00;96289.69;4877879;29;20037;-90
2022/12/05 08:26:36;;;;;;;15.40;9.63;;;;;;;4.52;100.00;96289.66;4891634;29;20156;-90
2022/12/05 08:29:07;;;;;;;20.63;11.57;;;;;;;5.06;100.00;96309.66;4876181;29;20036;-87
2022/12/05 08:31:38;;;;;;;22.77;11.33;;;;;;;5.54;100.00;96300.63;4879128;29;20033;-88
2022/12/05 08:34:06;;;;;;;17.93;10.27;;;;;;;4.68;100.00;96310.94;4877608;29;20030;-88
2022/12/05 08:36:31;;;;;;;23.47;13.87;;;;;;;4.25;100.00;96310.88;4871696;29;20036;-88
2022/12/05 08:39:00;;;;;;;30.40;11.00;;;;;;;5.16;100.00;96322.78;4870209;29;20037;-88
2022/12/05 08:41:30;;;;;;;18.13;9.17;;;;;;;5.38;100.00;96322.72;4885421;29;20044;-88
2022/12/05 08:43:57;;;;;;;25.07;10.33;;;;;;;4.86;100.00;96324.31;4865926;29;20040;-88
2022/12/05 08:46:23;;;;;;;54.70;13.00;;;;;;;4.67;100.00;96321.50;4887562;29;20040;-88
2022/12/05 08:48:48;;;;;;;186.67;26.93;;;;;;;4.90;100.00;96330.94;4878958;29;20047;-88
2022/12/05 08:51:14;;;;;;;231.70;34.97;;;;;;;4.77;100.00;96335.47;4912893;29;20092;-89
2022/12/05 08:53:47;;;;;;;167.03;26.20;;;;;;;3.66;100.00;96326.66;4884981;29;20045;-88
2022/12/05 08:56:23;;;;;;;710.80;99.78;;;;;;;4.86;100.00;96347.78;4866066;29;20037;-89
2022/12/05 08:58:57;;;;;;;258.73;39.00;;;;;;;4.64;100.00;96347.78;4885293;29;20040;-89
2022/12/05 09:01:29;;;;;;;479.20;60.87;;;;;;;4.81;100.00;96352.50;4896350;29;20040;-88
2022/12/05 09:03:59;;;;;;;433.80;57.20;;;;;;;5.27;100.00;96348.03;4881928;29;20041;-89
2022/12/05 09:06:39;;;;;;;279.07;38.47;;;;;;;5.66;100.00;96344.75;4894264;29;20435;-88
2022/12/05 09:09:11;;;;;;;302.43;39.30;;;;;;;6.05;100.00;96325.97;4879150;29;20029;-89
2022/12/05 09:11:45;;;;;;;571.63;83.53;;;;;;;6.51;100.00;96332.50;4875358;29;20045;-89
2022/12/05 09:14:17;;;;;;;561.90;85.00;;;;;;;6.63;100.00;96326.22;4890561;29;20109;-90
2022/12/05 09:16:45;;;;;;;389.50;53.50;;;;;;;6.35;100.00;96336.41;4880354;29;20051;-89
2022/12/05 09:19:19;;;;;;;257.50;34.00;;;;;;;5.99;100.00;96335.13;4885386;29;20551;-88
2022/12/05 09:21:45;;;;;;;251.83;30.97;;;;;;;6.22;100.00;96337.59;4883820;29;20533;-90
2022/12/05 09:24:22;;;;;;;204.40;29.47;;;;;;;6.18;100.00;96339.63;4876891;29;20033;-90
2022/12/05 09:26:53;;;;;;;208.57;29.90;;;;;;;6.52;100.00;96348.03;4909619;29;20075;-89
2022/12/05 09:29:28;;;;;;;134.27;24.90;;;;;;;6.86;100.00;96345.13;4875614;29;20044;-90
2022/12/05 09:31:58;;;;;;;124.40;23.03;;;;;;;7.14;100.00;96340.91;4883989;29;20044;-91
2022/12/05 09:34:24;;;;;;;87.80;17.50;;;;;;;7.11;100.00;96338.59;4860838;29;20029;-90
2022/12/05 09:36:53;;;;;;;79.13;14.43;;;;;;;7.09;100.00;96330.88;4878132;29;20036;-89
2022/12/05 09:39:24;;;;;;;59.70;14.33;;;;;;;7.12;100.00;96349.88;4877902;29;20063;-89
2022/12/05 09:42:38;;;;;;;33.40;12.07;;;;;;;6.06;100.00;96362.38;4878080;29;20045;-90
2022/12/05 09:45:34;;;;;;;37.07;10.23;;;;;;;6.10;100.00;96368.16;4875510;29;20105;-89
2022/12/05 09:48:12;;;;;;;24.70;9.73;;;;;;;5.68;100.00;96370.75;4876273;29;20044;-88
2022/12/05 09:50:45;;;;;;;21.93;9.83;;;;;;;5.71;100.00;96367.88;4876573;29;20049;-90
2022/12/05 09:53:20;;;;;;;37.10;11.23;;;;;;;5.21;100.00;96375.41;4882148;29;20037;-89
2022/12/05 09:56:06;;;;;;;23.87;7.97;;;;;;;5.27;100.00;96380.13;4880928;29;20074;-88
2022/12/05 09:58:32;;;;;;;20.10;9.07;;;;;;;5.35;100.00;96372.50;4878999;29;20088;-89
2022/12/05 10:04:43;;;;;;;13.43;7.20;;;;;;;4.14;100.00;96373.34;4883007;29;20037;-87
2022/12/05 10:07:32;;;;;;;15.20;8.77;;;;;;;3.78;100.00;96390.75;4885927;29;20483;-87
2022/12/05 10:13:48;;;;;;;45.73;11.30;;;;;;;3.90;100.00;96383.81;4886712;29;20043;-88
2022/12/05 10:16:32;;;;;;;15.20;8.60;;;;;;;3.63;100.00;96389.28;4892058;29;20055;-86
2022/12/05 10:19:05;;;;;;;19.70;9.67;;;;;;;3.63;100.00;96384.09;4878057;29;20041;-86
2022/12/05 10:21:57;;;;;;;26.58;11.98;;;;;;;3.60;100.00;96384.31;4888044;29;20041;-89
2022/12/05 10:24:39;;;;;;;16.37;8.80;;;;;;;3.48;100.00;96386.84;4886380;29;20051;-89
2022/12/05 10:27:34;;;;;;;15.43;8.67;;;;;;;3.54;100.00;96381.22;4877275;29;20037;-89
2022/12/05 10:30:30;;;;;;;12.73;7.67;;;;;;;3.52;100.00;96374.47;4908547;29;20036;-89
2022/12/05 10:33:12;;;;;;;14.73;7.40;;;;;;;3.47;100.00;96374.81;4881618;29;20081;-89
2022/12/05 10:35:40;;;;;;;31.83;11.53;;;;;;;3.62;100.00;96366.81;4902183;29;20154;-89
2022/12/05 10:38:31;;;;;;;30.80;14.03;;;;;;;3.60;100.00;96366.13;4894678;29;20633;-86
2022/12/05 10:41:06;;;;;;;16.57;8.80;;;;;;;3.62;100.00;96361.63;4876026;29;20028;-89
2022/12/05 10:43:36;;;;;;;13.37;7.00;;;;;;;3.62;100.00;96353.81;4870784;29;20041;-89
2022/12/05 10:46:03;;;;;;;18.50;10.50;;;;;;;3.64;100.00;96349.34;4878545;29;20172;-89
2022/12/05 10:48:30;;;;;;;15.13;7.67;;;;;;;3.64;100.00;96359.75;4891380;29;20021;-89
2022/12/05 10:50:57;;;;;;;912.97;150.17;;;;;;;4.14;100.00;96350.75;4871861;29;20055;-85
2022/12/05 10:53:40;;;;;;;1278.50;225.53;;;;;;;4.82;100.00;96363.75;4862067;29;20136;-89
2022/12/05 10:56:43;;;;;;;1030.77;170.63;;;;;;;5.29;100.00;96362.56;4874593;29;20029;-90
2022/12/05 10:59:45;;;;;;;608.83;95.07;;;;;;;5.67;100.00;96350.81;4874101;29;20128;-89
2022/12/05 11:02:32;;;;;;;603.53;98.83;;;;;;;5.72;100.00;96347.84;4902780;29;20041;-90
2022/12/05 11:05:02;;;;;;;119.30;22.23;;;;;;;5.30;100.00;96346.00;4889780;29;20045;-86
2022/12/05 11:07:42;;;;;;;63.00;18.07;;;;;;;5.31;100.00;96344.22;4897326;29;20037;-89
2022/12/05 11:10:19;;;;;;;120.70;23.80;;;;;;;5.47;100.00;96346.41;4875501;29;20507;-86
2022/12/05 11:12:46;;;;;;;18.27;9.17;;;;;;;5.09;100.00;96352.91;4875767;29;20412;-91
2022/12/05 11:15:30;;;;;;;23.87;15.77;;;;;;;4.50;100.00;96356.69;4876840;29;20049;-87
2022/12/05 11:18:16;;;;;;;26.37;16.73;;;;;;;4.44;100.00;96357.16;4877495;29;20040;-88
2022/12/05 11:20:56;;;;;;;62.73;43.43;;;;;;;4.47;100.00;96360.34;4875554;29;20036;-87
2022/12/05 11:23:29;;;;;;;24.87;16.00;;;;;;;4.53;100.00;96360.81;4868633;29;20074;-88
2022/12/05 11:25:57;;;;;;;12.97;8.30;;;;;;;4.57;100.00;96359.66;4873534;29;20036;-87
2022/12/05 11:28:35;;;;;;;14.03;8.07;;;;;;;4.30;100.00;96360.00;4884078;29;20044;-87
2022/12/05 11:31:24;;;;;;;11.40;7.20;;;;;;;4.11;100.00;96365.75;4879176;29;20072;-88
2022/12/05 11:34:10;;;;;;;12.60;6.90;;;;;;;3.83;100.00;96370.44;4873310;29;20095;-88
2022/12/05 11:36:45;;;;;;;176.30;28.27;;;;;;;4.21;100.00;96370.16;4899474;29;20083;-89
2022/12/05 11:39:12;;;;;;;381.70;60.53;;;;;;;5.71;100.00;96373.09;4873543;29;20033;-89
2022/12/05 11:41:57;;;;;;;327.90;66.53;;;;;;;6.28;100.00;96364.03;4834807;29;20052;-90
2022/12/05 11:44:50;;;;;;;244.77;43.27;;;;;;;6.37;100.00;96350.19;4830013;29;20037;-86
2022/12/05 11:51:01;;;;;;;449.53;64.23;;;;;;;7.21;100.00;96347.28;4909920;29;20045;-88
2022/12/05 11:54:00;;;;;;;249.60;38.45;;;;;;;7.32;100.00;96341.09;4885348;29;20069;-88
2022/12/05 11:56:57;;;;;;;436.67;55.50;;;;;;;7.41;100.00;96339.44;4895253;29;20048;-89
2022/12/05 11:59:30;;;;;;;358.03;51.80;;;;;;;7.49;100.00;96340.41;4881433;29;20037;-87